sensor_id;sensor_type;location;lat;lon;timestamp;P1;durP1;ratioP1;P2;durP2;ratioP2
11805;SDS011;5960;42.602;23.482;2022-11-25T00:01:13;3.40;;;2.30;;
11805;SDS011;5960;42.602;23.482;2022-11-25T00:03:41;4.20;;;3.15;;
11805;SDS011;5960;42.602;23.482;2022-11-25T00:06:12;3.35;;;2.42;;
11805;SDS011;5960;42.602;23.482;2022-11-25T00:08:40;2.83;;;2.40;;
11805;SDS011;5960;42.602;23.482;2022-11-25T00:11:09;4.75;;;3.03;;
11805;SDS011;5960;42.602;23.482;2022-11-25T00:13:36;3.25;;;2.67;;
11805;SDS011;5960;42.602;23.482;2022-11-25T00:16:06;3.47;;;2.70;;
11805;SDS011;5960;42.602;23.482;2022-11-25T00:18:34;4.85;;;2.83;;
11805;SDS011;5960;42.602;23.482;2022-11-25T00:21:04;3.42;;;2.40;;
11805;SDS011;5960;42.602;23.482;2022-11-25T00:23:32;3.28;;;2.85;;
11805;SDS011;5960;42.602;23.482;2022-11-25T00:26:04;3.33;;;2.45;;
11805;SDS011;5960;42.602;23.482;2022-11-25T00:28:31;4.03;;;2.63;;
11805;SDS011;5960;42.602;23.482;2022-11-25T00:31:02;4.72;;;2.70;;
11805;SDS011;5960;42.602;23.482;2022-11-25T00:33:31;2.58;;;2.20;;
11805;SDS011;5960;42.602;23.482;2022-11-25T00:35:59;3.47;;;2.60;;
11805;SDS011;5960;42.602;23.482;2022-11-25T00:38:26;4.75;;;2.70;;
11805;SDS011;5960;42.602;23.482;2022-11-25T00:40:53;3.22;;;2.60;;
11805;SDS011;5960;42.602;23.482;2022-11-25T00:43:40;3.60;;;2.47;;
11805;SDS011;5960;42.602;23.482;2022-11-25T00:46:25;4.43;;;2.53;;
11805;SDS011;5960;42.602;23.482;2022-11-25T00:48:53;3.63;;;2.83;;
11805;SDS011;5960;42.602;23.482;2022-11-25T00:51:20;4.85;;;2.92;;
11805;SDS011;5960;42.602;23.482;2022-11-25T00:53:46;4.30;;;2.78;;
11805;SDS011;5960;42.602;23.482;2022-11-25T00:56:13;3.70;;;2.70;;
11805;SDS011;5960;42.602;23.482;2022-11-25T00:58:40;5.63;;;3.00;;
11805;SDS011;5960;42.602;23.482;2022-11-25T01:01:08;4.60;;;2.80;;
11805;SDS011;5960;42.602;23.482;2022-11-25T01:03:36;4.25;;;3.03;;
11805;SDS011;5960;42.602;23.482;2022-11-25T01:06:05;4.28;;;2.85;;
11805;SDS011;5960;42.602;23.482;2022-11-25T01:08:35;5.93;;;3.40;;
11805;SDS011;5960;42.602;23.482;2022-11-25T01:11:03;7.00;;;3.72;;
11805;SDS011;5960;42.602;23.482;2022-11-25T01:13:32;5.50;;;3.78;;
11805;SDS011;5960;42.602;23.482;2022-11-25T01:16:00;4.25;;;2.90;;
11805;SDS011;5960;42.602;23.482;2022-11-25T01:18:27;3.92;;;2.95;;
11805;SDS011;5960;42.602;23.482;2022-11-25T01:20:54;3.88;;;3.05;;
11805;SDS011;5960;42.602;23.482;2022-11-25T01:23:23;3.97;;;3.08;;
11805;SDS011;5960;42.602;23.482;2022-11-25T01:25:49;3.72;;;2.80;;
11805;SDS011;5960;42.602;23.482;2022-11-25T01:28:16;6.53;;;2.80;;
11805;SDS011;5960;42.602;23.482;2022-11-25T01:30:43;3.13;;;2.33;;
11805;SDS011;5960;42.602;23.482;2022-11-25T01:33:09;4.63;;;3.30;;
11805;SDS011;5960;42.602;23.482;2022-11-25T01:35:36;5.40;;;3.03;;
11805;SDS011;5960;42.602;23.482;2022-11-25T01:38:03;4.07;;;2.75;;
11805;SDS011;5960;42.602;23.482;2022-11-25T01:40:31;4.63;;;3.58;;
11805;SDS011;5960;42.602;23.482;2022-11-25T01:42:58;4.28;;;2.83;;
11805;SDS011;5960;42.602;23.482;2022-11-25T01:45:31;5.53;;;3.53;;
11805;SDS011;5960;42.602;23.482;2022-11-25T01:48:00;3.30;;;2.50;;
11805;SDS011;5960;42.602;23.482;2022-11-25T01:50:34;3.38;;;2.58;;
11805;SDS011;5960;42.602;23.482;2022-11-25T01:53:02;2.90;;;2.40;;
11805;SDS011;5960;42.602;23.482;2022-11-25T01:55:34;2.50;;;2.28;;
11805;SDS011;5960;42.602;23.482;2022-11-25T01:58:05;2.63;;;2.42;;
11805;SDS011;5960;42.602;23.482;2022-11-25T02:00:35;3.20;;;2.58;;
11805;SDS011;5960;42.602;23.482;2022-11-25T02:03:03;4.78;;;3.05;;
11805;SDS011;5960;42.602;23.482;2022-11-25T02:05:31;4.32;;;2.80;;
11805;SDS011;5960;42.602;23.482;2022-11-25T02:08:04;5.25;;;2.60;;
11805;SDS011;5960;42.602;23.482;2022-11-25T02:10:32;4.72;;;2.65;;
11805;SDS011;5960;42.602;23.482;2022-11-25T02:13:01;4.32;;;2.90;;
11805;SDS011;5960;42.602;23.482;2022-11-25T02:15:28;6.72;;;2.90;;
11805;SDS011;5960;42.602;23.482;2022-11-25T02:17:58;3.58;;;2.60;;
11805;SDS011;5960;42.602;23.482;2022-11-25T02:20:25;3.33;;;2.45;;
11805;SDS011;5960;42.602;23.482;2022-11-25T02:22:55;5.70;;;2.70;;
11805;SDS011;5960;42.602;23.482;2022-11-25T02:25:27;4.32;;;2.55;;
11805;SDS011;5960;42.602;23.482;2022-11-25T02:27:56;4.47;;;2.60;;
11805;SDS011;5960;42.602;23.482;2022-11-25T02:30:26;2.97;;;2.35;;
11805;SDS011;5960;42.602;23.482;2022-11-25T02:32:53;4.10;;;2.55;;
11805;SDS011;5960;42.602;23.482;2022-11-25T02:35:28;2.47;;;2.28;;
11805;SDS011;5960;42.602;23.482;2022-11-25T02:37:58;3.63;;;2.35;;
11805;SDS011;5960;42.602;23.482;2022-11-25T02:40:30;3.20;;;2.28;;
11805;SDS011;5960;42.602;23.482;2022-11-25T02:42:59;4.10;;;2.30;;
11805;SDS011;5960;42.602;23.482;2022-11-25T02:45:29;3.38;;;2.25;;
11805;SDS011;5960;42.602;23.482;2022-11-25T02:48:02;3.22;;;2.40;;
11805;SDS011;5960;42.602;23.482;2022-11-25T02:50:29;4.20;;;2.92;;
11805;SDS011;5960;42.602;23.482;2022-11-25T02:52:56;3.25;;;2.10;;
11805;SDS011;5960;42.602;23.482;2022-11-25T02:55:22;6.28;;;2.65;;
11805;SDS011;5960;42.602;23.482;2022-11-25T02:57:51;2.60;;;2.10;;
11805;SDS011;5960;42.602;23.482;2022-11-25T03:00:18;2.33;;;2.13;;
11805;SDS011;5960;42.602;23.482;2022-11-25T03:02:45;3.55;;;2.15;;
11805;SDS011;5960;42.602;23.482;2022-11-25T03:05:12;3.22;;;2.28;;
11805;SDS011;5960;42.602;23.482;2022-11-25T03:07:39;4.95;;;2.25;;
11805;SDS011;5960;42.602;23.482;2022-11-25T03:10:06;4.50;;;2.67;;
11805;SDS011;5960;42.602;23.482;2022-11-25T03:12:33;3.10;;;2.17;;
11805;SDS011;5960;42.602;23.482;2022-11-25T03:15:01;2.53;;;1.88;;
11805;SDS011;5960;42.602;23.482;2022-11-25T03:17:28;4.97;;;2.20;;
11805;SDS011;5960;42.602;23.482;2022-11-25T03:19:55;2.85;;;2.13;;
11805;SDS011;5960;42.602;23.482;2022-11-25T03:22:21;3.65;;;2.30;;
11805;SDS011;5960;42.602;23.482;2022-11-25T03:24:48;6.43;;;3.00;;
11805;SDS011;5960;42.602;23.482;2022-11-25T03:27:15;3.00;;;2.10;;
11805;SDS011;5960;42.602;23.482;2022-11-25T03:29:41;6.80;;;3.10;;
11805;SDS011;5960;42.602;23.482;2022-11-25T03:32:10;5.53;;;3.45;;
11805;SDS011;5960;42.602;23.482;2022-11-25T03:34:36;4.57;;;2.22;;
11805;SDS011;5960;42.602;23.482;2022-11-25T03:37:03;4.65;;;2.60;;
11805;SDS011;5960;42.602;23.482;2022-11-25T03:39:30;3.33;;;2.70;;
11805;SDS011;5960;42.602;23.482;2022-11-25T03:41:57;3.03;;;2.00;;
11805;SDS011;5960;42.602;23.482;2022-11-25T03:44:23;3.00;;;2.20;;
11805;SDS011;5960;42.602;23.482;2022-11-25T03:46:50;3.58;;;2.55;;
11805;SDS011;5960;42.602;23.482;2022-11-25T03:49:18;2.88;;;2.03;;
11805;SDS011;5960;42.602;23.482;2022-11-25T03:51:46;3.03;;;2.28;;
11805;SDS011;5960;42.602;23.482;2022-11-25T03:54:12;4.10;;;2.42;;
11805;SDS011;5960;42.602;23.482;2022-11-25T03:56:39;4.93;;;2.92;;
11805;SDS011;5960;42.602;23.482;2022-11-25T03:59:06;4.50;;;3.17;;
11805;SDS011;5960;42.602;23.482;2022-11-25T04:01:33;4.45;;;2.70;;
11805;SDS011;5960;42.602;23.482;2022-11-25T04:04:00;4.47;;;2.85;;
11805;SDS011;5960;42.602;23.482;2022-11-25T04:06:28;3.92;;;2.58;;
11805;SDS011;5960;42.602;23.482;2022-11-25T04:08:56;4.22;;;2.55;;
11805;SDS011;5960;42.602;23.482;2022-11-25T04:11:23;2.95;;;2.20;;
11805;SDS011;5960;42.602;23.482;2022-11-25T04:14:09;3.85;;;2.55;;
11805;SDS011;5960;42.602;23.482;2022-11-25T04:16:35;5.90;;;2.97;;
11805;SDS011;5960;42.602;23.482;2022-11-25T04:19:02;4.47;;;2.53;;
11805;SDS011;5960;42.602;23.482;2022-11-25T04:21:30;3.50;;;2.85;;
11805;SDS011;5960;42.602;23.482;2022-11-25T04:23:57;4.13;;;2.60;;
11805;SDS011;5960;42.602;23.482;2022-11-25T04:26:23;3.25;;;2.42;;
11805;SDS011;5960;42.602;23.482;2022-11-25T04:28:50;2.78;;;2.40;;
11805;SDS011;5960;42.602;23.482;2022-11-25T04:31:17;4.63;;;2.65;;
11805;SDS011;5960;42.602;23.482;2022-11-25T04:33:43;4.07;;;2.53;;
11805;SDS011;5960;42.602;23.482;2022-11-25T04:36:10;3.88;;;2.72;;
11805;SDS011;5960;42.602;23.482;2022-11-25T04:38:38;5.43;;;3.80;;
11805;SDS011;5960;42.602;23.482;2022-11-25T04:41:05;7.43;;;3.30;;
11805;SDS011;5960;42.602;23.482;2022-11-25T04:43:32;3.92;;;2.45;;
11805;SDS011;5960;42.602;23.482;2022-11-25T04:45:59;3.78;;;2.35;;
11805;SDS011;5960;42.602;23.482;2022-11-25T04:48:26;2.33;;;2.03;;
11805;SDS011;5960;42.602;23.482;2022-11-25T04:50:53;2.72;;;2.20;;
11805;SDS011;5960;42.602;23.482;2022-11-25T04:53:20;3.90;;;2.30;;
11805;SDS011;5960;42.602;23.482;2022-11-25T04:55:48;4.18;;;2.42;;
11805;SDS011;5960;42.602;23.482;2022-11-25T04:58:15;2.80;;;2.38;;
11805;SDS011;5960;42.602;23.482;2022-11-25T05:01:02;5.20;;;2.72;;
11805;SDS011;5960;42.602;23.482;2022-11-25T05:03:28;4.50;;;2.80;;
11805;SDS011;5960;42.602;23.482;2022-11-25T05:05:54;5.22;;;2.88;;
11805;SDS011;5960;42.602;23.482;2022-11-25T05:08:21;4.82;;;2.80;;
11805;SDS011;5960;42.602;23.482;2022-11-25T05:10:49;7.65;;;2.90;;
11805;SDS011;5960;42.602;23.482;2022-11-25T05:13:16;5.00;;;2.83;;
11805;SDS011;5960;42.602;23.482;2022-11-25T05:15:42;4.75;;;3.50;;
11805;SDS011;5960;42.602;23.482;2022-11-25T05:18:09;10.50;;;4.28;;
11805;SDS011;5960;42.602;23.482;2022-11-25T05:20:36;3.95;;;2.97;;
11805;SDS011;5960;42.602;23.482;2022-11-25T05:23:03;3.80;;;3.20;;
11805;SDS011;5960;42.602;23.482;2022-11-25T05:25:29;5.13;;;3.25;;
11805;SDS011;5960;42.602;23.482;2022-11-25T05:27:57;4.75;;;2.85;;
11805;SDS011;5960;42.602;23.482;2022-11-25T05:30:24;4.25;;;2.60;;
11805;SDS011;5960;42.602;23.482;2022-11-25T05:32:51;3.83;;;2.60;;
11805;SDS011;5960;42.602;23.482;2022-11-25T05:35:17;4.45;;;2.80;;
11805;SDS011;5960;42.602;23.482;2022-11-25T05:37:45;3.33;;;2.60;;
11805;SDS011;5960;42.602;23.482;2022-11-25T05:40:12;5.05;;;2.60;;
11805;SDS011;5960;42.602;23.482;2022-11-25T05:42:40;5.53;;;3.00;;
11805;SDS011;5960;42.602;23.482;2022-11-25T05:45:09;3.72;;;2.67;;
11805;SDS011;5960;42.602;23.482;2022-11-25T05:47:36;3.53;;;2.33;;
11805;SDS011;5960;42.602;23.482;2022-11-25T05:50:03;4.00;;;2.45;;
11805;SDS011;5960;42.602;23.482;2022-11-25T05:52:30;3.85;;;2.75;;
11805;SDS011;5960;42.602;23.482;2022-11-25T05:54:57;5.80;;;2.28;;
11805;SDS011;5960;42.602;23.482;2022-11-25T05:57:24;6.07;;;3.22;;
11805;SDS011;5960;42.602;23.482;2022-11-25T05:59:52;28.13;;;12.63;;
11805;SDS011;5960;42.602;23.482;2022-11-25T06:02:20;107.80;;;45.25;;
11805;SDS011;5960;42.602;23.482;2022-11-25T06:04:47;73.50;;;36.08;;
11805;SDS011;5960;42.602;23.482;2022-11-25T06:07:14;36.17;;;16.50;;
11805;SDS011;5960;42.602;23.482;2022-11-25T06:09:40;27.83;;;16.52;;
11805;SDS011;5960;42.602;23.482;2022-11-25T06:12:07;12.23;;;9.60;;
11805;SDS011;5960;42.602;23.482;2022-11-25T06:14:34;5.97;;;4.78;;
11805;SDS011;5960;42.602;23.482;2022-11-25T06:17:01;2.30;;;2.10;;
11805;SDS011;5960;42.602;23.482;2022-11-25T06:19:30;7.78;;;5.85;;
11805;SDS011;5960;42.602;23.482;2022-11-25T06:21:56;3.75;;;2.63;;
11805;SDS011;5960;42.602;23.482;2022-11-25T06:24:23;3.47;;;2.33;;
11805;SDS011;5960;42.602;23.482;2022-11-25T06:26:50;5.40;;;3.58;;
11805;SDS011;5960;42.602;23.482;2022-11-25T06:29:16;5.82;;;3.55;;
11805;SDS011;5960;42.602;23.482;2022-11-25T06:31:43;3.33;;;2.63;;
11805;SDS011;5960;42.602;23.482;2022-11-25T06:34:10;5.32;;;2.80;;
11805;SDS011;5960;42.602;23.482;2022-11-25T06:36:38;4.90;;;3.08;;
11805;SDS011;5960;42.602;23.482;2022-11-25T06:39:05;5.70;;;3.35;;
11805;SDS011;5960;42.602;23.482;2022-11-25T06:41:31;4.40;;;3.17;;
11805;SDS011;5960;42.602;23.482;2022-11-25T06:43:58;4.82;;;2.15;;
11805;SDS011;5960;42.602;23.482;2022-11-25T06:46:25;3.28;;;2.30;;
11805;SDS011;5960;42.602;23.482;2022-11-25T06:48:52;4.78;;;3.03;;
11805;SDS011;5960;42.602;23.482;2022-11-25T06:51:19;4.63;;;2.67;;
11805;SDS011;5960;42.602;23.482;2022-11-25T06:53:47;7.00;;;2.90;;
11805;SDS011;5960;42.602;23.482;2022-11-25T06:56:14;7.82;;;4.07;;
11805;SDS011;5960;42.602;23.482;2022-11-25T06:58:43;4.15;;;2.83;;
11805;SDS011;5960;42.602;23.482;2022-11-25T07:01:12;4.32;;;2.95;;
11805;SDS011;5960;42.602;23.482;2022-11-25T07:03:40;2.75;;;2.47;;
11805;SDS011;5960;42.602;23.482;2022-11-25T07:06:07;3.83;;;2.20;;
11805;SDS011;5960;42.602;23.482;2022-11-25T07:08:35;4.70;;;2.63;;
11805;SDS011;5960;42.602;23.482;2022-11-25T07:11:04;3.60;;;2.10;;
11805;SDS011;5960;42.602;23.482;2022-11-25T07:13:32;4.95;;;3.03;;
11805;SDS011;5960;42.602;23.482;2022-11-25T07:16:00;3.53;;;2.78;;
11805;SDS011;5960;42.602;23.482;2022-11-25T07:18:28;4.75;;;2.80;;
11805;SDS011;5960;42.602;23.482;2022-11-25T07:21:00;4.63;;;3.08;;
11805;SDS011;5960;42.602;23.482;2022-11-25T07:23:27;4.25;;;2.88;;
11805;SDS011;5960;42.602;23.482;2022-11-25T07:25:54;3.95;;;2.10;;
11805;SDS011;5960;42.602;23.482;2022-11-25T07:28:22;2.95;;;2.30;;
11805;SDS011;5960;42.602;23.482;2022-11-25T07:30:49;4.47;;;3.17;;
11805;SDS011;5960;42.602;23.482;2022-11-25T07:33:15;2.55;;;2.35;;
11805;SDS011;5960;42.602;23.482;2022-11-25T07:35:42;4.03;;;2.63;;
11805;SDS011;5960;42.602;23.482;2022-11-25T07:38:09;4.80;;;2.63;;
11805;SDS011;5960;42.602;23.482;2022-11-25T07:40:37;3.40;;;2.65;;
11805;SDS011;5960;42.602;23.482;2022-11-25T07:43:04;2.97;;;2.25;;
11805;SDS011;5960;42.602;23.482;2022-11-25T07:45:32;5.43;;;2.67;;
11805;SDS011;5960;42.602;23.482;2022-11-25T07:47:59;4.32;;;2.35;;
11805;SDS011;5960;42.602;23.482;2022-11-25T07:50:27;4.07;;;2.50;;
11805;SDS011;5960;42.602;23.482;2022-11-25T07:52:53;3.80;;;2.80;;
11805;SDS011;5960;42.602;23.482;2022-11-25T07:55:20;2.55;;;2.17;;
11805;SDS011;5960;42.602;23.482;2022-11-25T07:57:47;4.00;;;3.03;;
11805;SDS011;5960;42.602;23.482;2022-11-25T08:00:14;4.28;;;3.33;;
11805;SDS011;5960;42.602;23.482;2022-11-25T08:02:42;5.03;;;3.30;;
11805;SDS011;5960;42.602;23.482;2022-11-25T08:05:09;4.60;;;3.55;;
11805;SDS011;5960;42.602;23.482;2022-11-25T08:07:36;5.32;;;4.13;;
11805;SDS011;5960;42.602;23.482;2022-11-25T08:10:03;3.80;;;2.95;;
11805;SDS011;5960;42.602;23.482;2022-11-25T08:12:31;3.35;;;2.70;;
11805;SDS011;5960;42.602;23.482;2022-11-25T08:14:58;5.45;;;3.38;;
11805;SDS011;5960;42.602;23.482;2022-11-25T08:17:25;4.60;;;3.38;;
11805;SDS011;5960;42.602;23.482;2022-11-25T08:19:53;4.22;;;2.92;;
11805;SDS011;5960;42.602;23.482;2022-11-25T08:22:20;3.72;;;2.80;;
11805;SDS011;5960;42.602;23.482;2022-11-25T08:24:47;5.82;;;3.15;;
11805;SDS011;5960;42.602;23.482;2022-11-25T08:27:13;5.00;;;3.80;;
11805;SDS011;5960;42.602;23.482;2022-11-25T08:29:40;4.32;;;3.33;;
11805;SDS011;5960;42.602;23.482;2022-11-25T08:32:07;3.55;;;2.58;;
11805;SDS011;5960;42.602;23.482;2022-11-25T08:34:34;3.70;;;3.20;;
11805;SDS011;5960;42.602;23.482;2022-11-25T08:37:02;4.55;;;3.60;;
11805;SDS011;5960;42.602;23.482;2022-11-25T08:39:28;5.20;;;3.47;;
11805;SDS011;5960;42.602;23.482;2022-11-25T08:41:55;4.80;;;2.58;;
11805;SDS011;5960;42.602;23.482;2022-11-25T08:44:22;4.68;;;2.80;;
11805;SDS011;5960;42.602;23.482;2022-11-25T08:46:52;3.25;;;2.58;;
11805;SDS011;5960;42.602;23.482;2022-11-25T08:49:19;2.83;;;2.42;;
11805;SDS011;5960;42.602;23.482;2022-11-25T08:51:46;6.32;;;2.70;;
11805;SDS011;5960;42.602;23.482;2022-11-25T08:54:14;10.38;;;5.35;;
11805;SDS011;5960;42.602;23.482;2022-11-25T08:56:41;9.25;;;4.90;;
11805;SDS011;5960;42.602;23.482;2022-11-25T08:59:08;5.07;;;3.33;;
11805;SDS011;5960;42.602;23.482;2022-11-25T09:01:35;4.53;;;3.00;;
11805;SDS011;5960;42.602;23.482;2022-11-25T09:04:02;6.63;;;3.28;;
11805;SDS011;5960;42.602;23.482;2022-11-25T09:06:28;7.10;;;4.00;;
11805;SDS011;5960;42.602;23.482;2022-11-25T09:08:55;3.72;;;2.88;;
11805;SDS011;5960;42.602;23.482;2022-11-25T09:11:26;4.35;;;2.78;;
11805;SDS011;5960;42.602;23.482;2022-11-25T09:13:53;3.35;;;2.70;;
11805;SDS011;5960;42.602;23.482;2022-11-25T09:16:19;3.70;;;2.80;;
11805;SDS011;5960;42.602;23.482;2022-11-25T09:18:46;3.75;;;3.10;;
11805;SDS011;5960;42.602;23.482;2022-11-25T09:21:14;3.72;;;2.90;;
11805;SDS011;5960;42.602;23.482;2022-11-25T09:23:42;3.95;;;2.55;;
11805;SDS011;5960;42.602;23.482;2022-11-25T09:26:15;3.72;;;2.72;;
11805;SDS011;5960;42.602;23.482;2022-11-25T09:28:47;7.15;;;3.63;;
11805;SDS011;5960;42.602;23.482;2022-11-25T09:31:14;7.82;;;3.42;;
11805;SDS011;5960;42.602;23.482;2022-11-25T09:33:40;5.03;;;2.88;;
11805;SDS011;5960;42.602;23.482;2022-11-25T09:36:08;7.13;;;3.42;;
11805;SDS011;5960;42.602;23.482;2022-11-25T09:38:36;3.75;;;2.78;;
11805;SDS011;5960;42.602;23.482;2022-11-25T09:41:03;3.85;;;3.22;;
11805;SDS011;5960;42.602;23.482;2022-11-25T09:43:36;3.53;;;3.22;;
11805;SDS011;5960;42.602;23.482;2022-11-25T09:46:34;2.70;;;2.22;;
11805;SDS011;5960;42.602;23.482;2022-11-25T09:49:19;3.53;;;2.90;;
11805;SDS011;5960;42.602;23.482;2022-11-25T09:51:59;3.50;;;3.20;;
11805;SDS011;5960;42.602;23.482;2022-11-25T09:54:34;4.18;;;3.00;;
11805;SDS011;5960;42.602;23.482;2022-11-25T09:57:11;3.65;;;2.85;;
11805;SDS011;5960;42.602;23.482;2022-11-25T09:59:49;4.45;;;3.03;;
11805;SDS011;5960;42.602;23.482;2022-11-25T10:02:25;4.30;;;2.78;;
11805;SDS011;5960;42.602;23.482;2022-11-25T10:04:57;4.38;;;3.97;;
11805;SDS011;5960;42.602;23.482;2022-11-25T10:07:35;3.35;;;2.80;;
11805;SDS011;5960;42.602;23.482;2022-11-25T10:10:09;8.13;;;3.95;;
11805;SDS011;5960;42.602;23.482;2022-11-25T10:12:43;3.42;;;2.70;;
11805;SDS011;5960;42.602;23.482;2022-11-25T10:15:12;4.90;;;3.10;;
11805;SDS011;5960;42.602;23.482;2022-11-25T10:17:45;3.70;;;3.08;;
11805;SDS011;5960;42.602;23.482;2022-11-25T10:20:16;4.90;;;3.35;;
11805;SDS011;5960;42.602;23.482;2022-11-25T10:22:46;4.35;;;2.90;;
11805;SDS011;5960;42.602;23.482;2022-11-25T10:25:17;13.55;;;6.97;;
11805;SDS011;5960;42.602;23.482;2022-11-25T10:27:47;5.18;;;3.00;;
11805;SDS011;5960;42.602;23.482;2022-11-25T10:30:18;15.25;;;6.88;;
11805;SDS011;5960;42.602;23.482;2022-11-25T10:32:48;4.57;;;2.70;;
11805;SDS011;5960;42.602;23.482;2022-11-25T10:35:20;4.75;;;2.90;;
11805;SDS011;5960;42.602;23.482;2022-11-25T10:37:53;2.90;;;2.60;;
11805;SDS011;5960;42.602;23.482;2022-11-25T10:40:24;4.20;;;2.50;;
11805;SDS011;5960;42.602;23.482;2022-11-25T10:42:51;3.33;;;2.40;;
11805;SDS011;5960;42.602;23.482;2022-11-25T10:45:18;4.82;;;2.65;;
11805;SDS011;5960;42.602;23.482;2022-11-25T10:47:52;4.88;;;2.90;;
11805;SDS011;5960;42.602;23.482;2022-11-25T10:50:32;5.78;;;2.72;;
11805;SDS011;5960;42.602;23.482;2022-11-25T10:53:09;3.28;;;2.88;;
11805;SDS011;5960;42.602;23.482;2022-11-25T10:55:40;4.47;;;2.97;;
11805;SDS011;5960;42.602;23.482;2022-11-25T10:58:25;3.30;;;2.38;;
11805;SDS011;5960;42.602;23.482;2022-11-25T11:01:00;3.17;;;2.20;;
11805;SDS011;5960;42.602;23.482;2022-11-25T11:03:30;2.25;;;1.95;;
11805;SDS011;5960;42.602;23.482;2022-11-25T11:05:57;3.70;;;2.10;;
11805;SDS011;5960;42.602;23.482;2022-11-25T11:08:24;5.97;;;2.03;;
11805;SDS011;5960;42.602;23.482;2022-11-25T11:11:13;3.83;;;2.58;;
11805;SDS011;5960;42.602;23.482;2022-11-25T11:13:42;5.35;;;3.03;;
11805;SDS011;5960;42.602;23.482;2022-11-25T11:18:57;5.15;;;2.83;;
11805;SDS011;5960;42.602;23.482;2022-11-25T11:21:28;4.07;;;2.47;;
11805;SDS011;5960;42.602;23.482;2022-11-25T11:23:56;6.38;;;2.97;;
11805;SDS011;5960;42.602;23.482;2022-11-25T11:26:25;10.38;;;4.82;;
11805;SDS011;5960;42.602;23.482;2022-11-25T11:28:57;3.85;;;2.85;;
11805;SDS011;5960;42.602;23.482;2022-11-25T11:31:26;17.73;;;7.68;;
11805;SDS011;5960;42.602;23.482;2022-11-25T11:33:59;5.00;;;3.00;;
11805;SDS011;5960;42.602;23.482;2022-11-25T11:36:39;5.15;;;2.70;;
11805;SDS011;5960;42.602;23.482;2022-11-25T11:42:10;3.05;;;2.50;;
11805;SDS011;5960;42.602;23.482;2022-11-25T11:44:49;3.83;;;2.70;;
11805;SDS011;5960;42.602;23.482;2022-11-25T11:47:29;4.60;;;2.88;;
11805;SDS011;5960;42.602;23.482;2022-11-25T11:50:07;3.72;;;2.35;;
11805;SDS011;5960;42.602;23.482;2022-11-25T11:52:50;3.70;;;2.67;;
11805;SDS011;5960;42.602;23.482;2022-11-25T11:55:27;2.88;;;2.38;;
11805;SDS011;5960;42.602;23.482;2022-11-25T11:58:02;5.25;;;3.20;;
11805;SDS011;5960;42.602;23.482;2022-11-25T12:00:37;5.95;;;3.70;;
11805;SDS011;5960;42.602;23.482;2022-11-25T12:03:13;4.20;;;3.15;;
11805;SDS011;5960;42.602;23.482;2022-11-25T12:05:45;3.75;;;2.85;;
11805;SDS011;5960;42.602;23.482;2022-11-25T12:08:19;3.70;;;2.65;;
11805;SDS011;5960;42.602;23.482;2022-11-25T12:10:52;3.72;;;2.83;;
11805;SDS011;5960;42.602;23.482;2022-11-25T12:13:22;5.68;;;3.53;;
11805;SDS011;5960;42.602;23.482;2022-11-25T12:15:57;15.95;;;6.40;;
11805;SDS011;5960;42.602;23.482;2022-11-25T12:18:34;4.25;;;3.53;;
11805;SDS011;5960;42.602;23.482;2022-11-25T12:21:12;3.83;;;2.63;;
11805;SDS011;5960;42.602;23.482;2022-11-25T12:23:55;6.35;;;3.42;;
11805;SDS011;5960;42.602;23.482;2022-11-25T12:26:29;8.52;;;4.45;;
11805;SDS011;5960;42.602;23.482;2022-11-25T12:29:04;12.02;;;8.13;;
11805;SDS011;5960;42.602;23.482;2022-11-25T12:31:38;5.60;;;3.92;;
11805;SDS011;5960;42.602;23.482;2022-11-25T12:34:10;9.60;;;5.95;;
11805;SDS011;5960;42.602;23.482;2022-11-25T12:36:43;14.27;;;7.32;;
11805;SDS011;5960;42.602;23.482;2022-11-25T12:39:14;6.22;;;4.03;;
11805;SDS011;5960;42.602;23.482;2022-11-25T12:41:48;7.40;;;4.43;;
11805;SDS011;5960;42.602;23.482;2022-11-25T12:44:18;6.28;;;3.67;;
11805;SDS011;5960;42.602;23.482;2022-11-25T12:46:51;5.25;;;3.95;;
11805;SDS011;5960;42.602;23.482;2022-11-25T12:49:19;5.25;;;3.70;;
11805;SDS011;5960;42.602;23.482;2022-11-25T12:58:06;5.20;;;3.97;;
11805;SDS011;5960;42.602;23.482;2022-11-25T13:03:55;4.53;;;3.25;;
11805;SDS011;5960;42.602;23.482;2022-11-25T13:06:45;7.90;;;4.15;;
11805;SDS011;5960;42.602;23.482;2022-11-25T13:09:49;8.45;;;3.72;;
11805;SDS011;5960;42.602;23.482;2022-11-25T13:12:37;6.70;;;4.05;;
11805;SDS011;5960;42.602;23.482;2022-11-25T13:15:16;5.80;;;3.67;;
11805;SDS011;5960;42.602;23.482;2022-11-25T13:17:47;4.45;;;3.47;;
11805;SDS011;5960;42.602;23.482;2022-11-25T13:23:19;7.28;;;4.53;;
11805;SDS011;5960;42.602;23.482;2022-11-25T13:25:52;12.40;;;5.05;;
11805;SDS011;5960;42.602;23.482;2022-11-25T13:28:39;7.75;;;4.90;;
11805;SDS011;5960;42.602;23.482;2022-11-25T13:31:15;18.13;;;8.60;;
11805;SDS011;5960;42.602;23.482;2022-11-25T13:33:53;18.15;;;8.20;;
11805;SDS011;5960;42.602;23.482;2022-11-25T13:36:41;12.82;;;7.57;;
11805;SDS011;5960;42.602;23.482;2022-11-25T13:39:12;4.90;;;3.70;;
11805;SDS011;5960;42.602;23.482;2022-11-25T13:41:44;5.07;;;3.63;;
11805;SDS011;5960;42.602;23.482;2022-11-25T13:44:17;4.75;;;3.47;;
11805;SDS011;5960;42.602;23.482;2022-11-25T13:46:52;6.15;;;4.03;;
11805;SDS011;5960;42.602;23.482;2022-11-25T13:49:24;7.75;;;4.68;;
11805;SDS011;5960;42.602;23.482;2022-11-25T13:51:54;9.18;;;4.25;;
11805;SDS011;5960;42.602;23.482;2022-11-25T13:54:24;6.43;;;4.45;;
11805;SDS011;5960;42.602;23.482;2022-11-25T13:57:00;6.10;;;3.78;;
11805;SDS011;5960;42.602;23.482;2022-11-25T13:59:48;5.72;;;3.88;;
11805;SDS011;5960;42.602;23.482;2022-11-25T14:02:27;8.95;;;5.47;;
11805;SDS011;5960;42.602;23.482;2022-11-25T14:04:57;8.23;;;5.35;;
11805;SDS011;5960;42.602;23.482;2022-11-25T14:07:29;6.75;;;4.97;;
11805;SDS011;5960;42.602;23.482;2022-11-25T14:10:19;7.47;;;4.32;;
11805;SDS011;5960;42.602;23.482;2022-11-25T14:12:59;8.10;;;4.55;;
11805;SDS011;5960;42.602;23.482;2022-11-25T14:15:46;10.48;;;5.28;;
11805;SDS011;5960;42.602;23.482;2022-11-25T14:18:35;9.10;;;5.35;;
11805;SDS011;5960;42.602;23.482;2022-11-25T14:21:15;12.18;;;5.70;;
11805;SDS011;5960;42.602;23.482;2022-11-25T14:23:57;7.93;;;5.53;;
11805;SDS011;5960;42.602;23.482;2022-11-25T14:26:32;6.70;;;4.78;;
11805;SDS011;5960;42.602;23.482;2022-11-25T14:29:03;9.57;;;5.50;;
11805;SDS011;5960;42.602;23.482;2022-11-25T14:31:35;7.47;;;5.45;;
11805;SDS011;5960;42.602;23.482;2022-11-25T14:34:09;9.43;;;5.70;;
11805;SDS011;5960;42.602;23.482;2022-11-25T14:36:39;14.77;;;7.38;;
11805;SDS011;5960;42.602;23.482;2022-11-25T14:39:14;13.45;;;8.02;;
11805;SDS011;5960;42.602;23.482;2022-11-25T14:41:48;12.07;;;6.70;;
11805;SDS011;5960;42.602;23.482;2022-11-25T14:44:23;13.27;;;7.72;;
11805;SDS011;5960;42.602;23.482;2022-11-25T14:46:56;9.05;;;5.47;;
11805;SDS011;5960;42.602;23.482;2022-11-25T14:49:23;11.93;;;7.25;;
11805;SDS011;5960;42.602;23.482;2022-11-25T14:52:05;16.38;;;10.18;;
11805;SDS011;5960;42.602;23.482;2022-11-25T14:54:32;22.17;;;10.65;;
11805;SDS011;5960;42.602;23.482;2022-11-25T14:57:06;47.83;;;19.15;;
11805;SDS011;5960;42.602;23.482;2022-11-25T14:59:34;54.88;;;21.30;;
11805;SDS011;5960;42.602;23.482;2022-11-25T15:02:02;66.55;;;23.38;;
11805;SDS011;5960;42.602;23.482;2022-11-25T15:04:30;91.47;;;29.88;;
11805;SDS011;5960;42.602;23.482;2022-11-25T15:06:57;97.45;;;30.73;;
11805;SDS011;5960;42.602;23.482;2022-11-25T15:09:26;102.93;;;34.53;;
11805;SDS011;5960;42.602;23.482;2022-11-25T15:11:55;104.35;;;32.53;;
11805;SDS011;5960;42.602;23.482;2022-11-25T15:14:24;88.18;;;29.08;;
11805;SDS011;5960;42.602;23.482;2022-11-25T15:16:55;188.27;;;48.58;;
11805;SDS011;5960;42.602;23.482;2022-11-25T15:19:23;54.88;;;18.77;;
11805;SDS011;5960;42.602;23.482;2022-11-25T15:21:55;206.88;;;49.25;;